Time;durP1;ratioP1;P1;durP2;ratioP2;P2;SDS_P1;SDS_P2;PMS_P1;PMS_P2;Temp;Humidity;BMP_temperature;BMP_pressure;BME280_temperature;BME280_humidity;BME280_pressure;Samples;Min_cycle;Max_cycle;Signal;HPM_P1;HPM_P2
2023/07/26 00:00:14;;;;;;;12.37;11.17;;;;;;;;;;5061620;28;20280;-63
2023/07/26 00:02:43;;;;;;;13.60;11.67;;;;;;;;;;5055103;28;20641;-62
2023/07/26 00:05:11;;;;;;;14.90;12.03;;;;;;;;;;5061040;28;20234;-64
2023/07/26 00:07:40;;;;;;;15.80;12.47;;;;;;;;;;5060524;28;20245;-62
2023/07/26 00:10:10;;;;;;;14.23;12.37;;;;;;;;;;5059778;28;20716;-62
2023/07/26 00:12:39;;;;;;;14.07;12.57;;;;;;;;;;5057263;28;20210;-62
2023/07/26 00:15:09;;;;;;;15.20;12.40;;;;;;;;;;5062755;28;20224;-62
2023/07/26 00:17:37;;;;;;;16.13;12.40;;;;;;;;;;5044503;28;20222;-63
2023/07/26 00:20:06;;;;;;;13.87;12.47;;;;;;;;;;5057156;28;20648;-63
2023/07/26 00:22:34;;;;;;;14.20;12.80;;;;;;;;;;5058419;28;20212;-62
2023/07/26 00:25:03;;;;;;;16.60;14.37;;;;;;;;;;5060653;28;20257;-63
2023/07/26 00:27:33;;;;;;;15.50;11.77;;;;;;;;;;5059384;28;20245;-63
2023/07/26 00:30:02;;;;;;;15.30;13.67;;;;;;;;;;5061735;28;20301;-63
2023/07/26 00:32:30;;;;;;;17.47;14.17;;;;;;;;;;5064597;28;20225;-62
2023/07/26 00:34:59;;;;;;;16.70;13.73;;;;;;;;;;5060035;28;20234;-63
2023/07/26 00:37:27;;;;;;;15.50;13.33;;;;;;;;;;5059061;28;20221;-64
2023/07/26 00:39:55;;;;;;;15.70;14.00;;;;;;;;;;5036119;28;20592;-62
2023/07/26 00:42:24;;;;;;;17.63;14.03;;;;;;;;;;5054435;28;20241;-63
2023/07/26 00:44:54;;;;;;;17.43;14.27;;;;;;;;;;5038871;28;20286;-63
2023/07/26 00:47:22;;;;;;;17.83;13.60;;;;;;;;;;5040237;28;20309;-65
2023/07/26 00:49:52;;;;;;;19.30;14.97;;;;;;;;;;5047723;28;20638;-63
2023/07/26 00:52:20;;;;;;;15.73;14.07;;;;;;;;;;5055376;28;20620;-63
2023/07/26 00:54:50;;;;;;;18.63;15.37;;;;;;;;;;5050832;28;20219;-63
2023/07/26 00:57:20;;;;;;;15.23;13.73;;;;;;;;;;5057609;28;20225;-63
2023/07/26 00:59:49;;;;;;;15.13;13.53;;;;;;;;;;5055905;28;20214;-63
2023/07/26 01:02:19;;;;;;;15.97;14.23;;;;;;;;;;5040662;28;20233;-63
2023/07/26 01:04:49;;;;;;;17.13;13.67;;;;;;;;;;5057928;28;20820;-63
2023/07/26 01:07:37;;;;;;;17.73;14.73;;;;;;;;;;5042071;28;20214;-63
2023/07/26 01:10:15;;;;;;;18.17;16.23;;;;;;;;;;5055730;28;20720;-63
2023/07/26 01:12:47;;;;;;;15.60;14.00;;;;;;;;;;5055210;28;20242;-63
2023/07/26 01:15:16;;;;;;;16.97;13.43;;;;;;;;;;5058881;28;20276;-63
2023/07/26 01:17:45;;;;;;;15.60;13.90;;;;;;;;;;5052489;28;20226;-64
2023/07/26 01:20:14;;;;;;;18.03;14.50;;;;;;;;;;5058980;28;20202;-63
2023/07/26 01:22:42;;;;;;;16.67;13.50;;;;;;;;;;5060762;28;20206;-64
2023/07/26 01:25:11;;;;;;;15.50;13.10;;;;;;;;;;5054920;28;20232;-63
2023/07/26 01:27:39;;;;;;;14.97;12.80;;;;;;;;;;5054666;28;20226;-64
2023/07/26 01:30:09;;;;;;;14.50;13.10;;;;;;;;;;5054019;28;20198;-63
2023/07/26 01:32:39;;;;;;;15.43;13.47;;;;;;;;;;5055443;28;20618;-64
2023/07/26 01:35:08;;;;;;;16.20;13.57;;;;;;;;;;5056385;28;20226;-62
2023/07/26 01:37:37;;;;;;;18.20;13.67;;;;;;;;;;5053837;28;20233;-63
2023/07/26 01:40:07;;;;;;;14.50;12.83;;;;;;;;;;5056498;28;20735;-64
2023/07/26 01:42:36;;;;;;;19.43;15.63;;;;;;;;;;5055773;28;20222;-63
2023/07/26 01:45:06;;;;;;;16.47;13.60;;;;;;;;;;5049877;28;20245;-63
2023/07/26 01:47:38;;;;;;;16.47;13.90;;;;;;;;;;5057318;28;20241;-64
2023/07/26 01:50:09;;;;;;;16.27;14.10;;;;;;;;;;5045681;28;20686;-63
2023/07/26 01:52:40;;;;;;;18.47;12.97;;;;;;;;;;5053623;28;20233;-64
2023/07/26 01:55:09;;;;;;;12.73;11.43;;;;;;;;;;5055204;28;20238;-64
2023/07/26 01:57:38;;;;;;;11.43;9.70;;;;;;;;;;5058610;28;20227;-63
2023/07/26 02:00:07;;;;;;;13.87;12.00;;;;;;;;;;5052758;28;20270;-62
2023/07/26 02:02:42;;;;;;;9.37;8.30;;;;;;;;;;5035096;28;20216;-63
2023/07/26 02:05:12;;;;;;;7.47;5.97;;;;;;;;;;5053229;28;20215;-68
2023/07/26 02:07:40;;;;;;;5.60;5.00;;;;;;;;;;5056816;28;20222;-63
2023/07/26 02:10:14;;;;;;;5.33;4.83;;;;;;;;;;5056459;28;20207;-63
2023/07/26 02:12:44;;;;;;;4.43;4.03;;;;;;;;;;5047710;28;20206;-63
2023/07/26 02:15:13;;;;;;;4.70;4.30;;;;;;;;;;5064344;28;20212;-63
2023/07/26 02:17:52;;;;;;;4.60;4.30;;;;;;;;;;5045149;28;20254;-62
2023/07/26 02:20:22;;;;;;;4.50;4.10;;;;;;;;;;5057902;28;20309;-63
2023/07/26 02:22:52;;;;;;;4.77;4.30;;;;;;;;;;5039940;28;20214;-63
2023/07/26 02:25:23;;;;;;;4.77;4.37;;;;;;;;;;5047089;28;20221;-63
2023/07/26 02:27:55;;;;;;;9.13;7.40;;;;;;;;;;5033880;28;20253;-62
2023/07/26 02:30:25;;;;;;;8.03;7.03;;;;;;;;;;5051277;28;20226;-63
2023/07/26 02:32:54;;;;;;;5.40;4.60;;;;;;;;;;5055162;28;20289;-63
2023/07/26 02:35:24;;;;;;;6.73;5.43;;;;;;;;;;5034153;28;20202;-62
2023/07/26 02:37:52;;;;;;;5.73;5.00;;;;;;;;;;5045041;28;20226;-64
2023/07/26 02:40:22;;;;;;;4.93;4.33;;;;;;;;;;5039872;28;20587;-64
2023/07/26 02:42:51;;;;;;;5.40;4.90;;;;;;;;;;5054955;28;20213;-64
2023/07/26 02:45:22;;;;;;;7.23;4.93;;;;;;;;;;5044332;28;20309;-62
2023/07/26 02:47:51;;;;;;;6.23;4.77;;;;;;;;;;5052899;28;20222;-64
2023/07/26 02:50:21;;;;;;;5.13;4.43;;;;;;;;;;5051310;28;20696;-64
2023/07/26 02:52:50;;;;;;;5.60;4.87;;;;;;;;;;5055000;28;20592;-63
2023/07/26 02:55:19;;;;;;;4.93;4.53;;;;;;;;;;5054133;28;20592;-63
2023/07/26 02:57:47;;;;;;;5.10;4.70;;;;;;;;;;5058283;28;20226;-64
2023/07/26 03:00:17;;;;;;;4.30;4.00;;;;;;;;;;5059254;28;20202;-63
2023/07/26 03:02:45;;;;;;;4.80;4.40;;;;;;;;;;5045896;28;20214;-62
2023/07/26 03:05:14;;;;;;;6.73;4.73;;;;;;;;;;5053275;28;20244;-66
2023/07/26 03:07:43;;;;;;;5.53;4.20;;;;;;;;;;5058214;28;20218;-63
2023/07/26 03:10:18;;;;;;;4.80;4.40;;;;;;;;;;5026261;28;20276;-62
2023/07/26 03:12:48;;;;;;;4.57;3.97;;;;;;;;;;5045706;28;20252;-63
2023/07/26 03:15:17;;;;;;;4.97;4.50;;;;;;;;;;5060909;28;20202;-63
2023/07/26 03:17:46;;;;;;;4.43;4.03;;;;;;;;;;5058796;28;20226;-63
2023/07/26 03:20:16;;;;;;;4.67;4.27;;;;;;;;;;5055052;28;21085;-63
2023/07/26 03:22:44;;;;;;;4.03;3.67;;;;;;;;;;5059571;28;20289;-63
2023/07/26 03:25:14;;;;;;;4.70;4.30;;;;;;;;;;5058807;28;20225;-64
2023/07/26 03:27:48;;;;;;;4.63;4.23;;;;;;;;;;5064429;28;20229;-64
2023/07/26 03:30:21;;;;;;;4.53;3.90;;;;;;;;;;5057361;28;20545;-64
2023/07/26 03:32:50;;;;;;;4.60;4.20;;;;;;;;;;5040998;28;20286;-64
2023/07/26 03:35:21;;;;;;;4.87;4.47;;;;;;;;;;5039898;28;20256;-64
2023/07/26 03:37:51;;;;;;;5.33;4.30;;;;;;;;;;5054127;28;20230;-63
2023/07/26 03:40:22;;;;;;;5.57;4.40;;;;;;;;;;5055435;28;20230;-63
2023/07/26 03:42:51;;;;;;;4.97;4.47;;;;;;;;;;5059673;28;20206;-63
2023/07/26 03:45:21;;;;;;;5.10;4.70;;;;;;;;;;5038618;28;20232;-64
2023/07/26 03:47:50;;;;;;;4.93;4.53;;;;;;;;;;5057724;28;20226;-64
2023/07/26 03:50:23;;;;;;;5.17;4.43;;;;;;;;;;5058395;28;20960;-62
2023/07/26 03:52:53;;;;;;;5.17;4.40;;;;;;;;;;5058430;28;20214;-63
2023/07/26 03:55:23;;;;;;;4.93;4.47;;;;;;;;;;5060013;28;20221;-64
2023/07/26 03:57:51;;;;;;;4.47;4.00;;;;;;;;;;5062050;28;20721;-63
2023/07/26 04:00:26;;;;;;;4.73;4.33;;;;;;;;;;5056543;28;20210;-64
2023/07/26 04:02:58;;;;;;;4.67;4.23;;;;;;;;;;5063358;28;20241;-64
2023/07/26 04:05:27;;;;;;;6.03;4.50;;;;;;;;;;5063346;28;20235;-62
2023/07/26 04:07:56;;;;;;;4.50;4.10;;;;;;;;;;5045180;28;20689;-63
2023/07/26 04:10:26;;;;;;;4.80;4.27;;;;;;;;;;5063773;28;20201;-61
2023/07/26 04:12:56;;;;;;;4.43;4.13;;;;;;;;;;5064222;28;20237;-62
2023/07/26 04:15:29;;;;;;;4.33;3.90;;;;;;;;;;5061764;28;20202;-62
2023/07/26 04:17:59;;;;;;;4.47;4.07;;;;;;;;;;5060267;28;20225;-63
2023/07/26 04:20:29;;;;;;;5.00;4.40;;;;;;;;;;5063682;28;20275;-64
2023/07/26 04:22:58;;;;;;;4.57;4.10;;;;;;;;;;5061984;28;20203;-63
2023/07/26 04:25:28;;;;;;;7.13;4.70;;;;;;;;;;5049136;28;20237;-63
2023/07/26 04:28:06;;;;;;;5.03;4.53;;;;;;;;;;5049618;28;20226;-62
2023/07/26 04:30:43;;;;;;;5.60;5.07;;;;;;;;;;5030633;28;20206;-63
2023/07/26 04:33:25;;;;;;;7.57;6.97;;;;;;;;;;5040036;28;20202;-63
2023/07/26 04:36:03;;;;;;;5.43;4.90;;;;;;;;;;5041978;28;20281;-61
2023/07/26 04:38:42;;;;;;;3.73;3.47;;;;;;;;;;5021825;28;20233;-63
2023/07/26 04:41:17;;;;;;;3.50;2.53;;;;;;;;;;5039162;28;20266;-63
2023/07/26 04:43:53;;;;;;;2.03;1.93;;;;;;;;;;5036084;28;20214;-63
2023/07/26 04:46:35;;;;;;;11.50;8.13;;;;;;;;;;5043845;28;20302;-63
2023/07/26 04:49:09;;;;;;;5.03;3.97;;;;;;;;;;5039234;28;20730;-64
2023/07/26 04:51:44;;;;;;;11.60;8.27;;;;;;;;;;5034356;28;20206;-63
2023/07/26 04:54:24;;;;;;;3.33;2.30;;;;;;;;;;5039139;28;20229;-63
2023/07/26 04:56:59;;;;;;;2.67;2.47;;;;;;;;;;5042644;28;20268;-62
2023/07/26 04:59:35;;;;;;;3.90;2.80;;;;;;;;;;5044401;28;20295;-62
2023/07/26 05:02:15;;;;;;;2.20;2.07;;;;;;;;;;5057932;28;20199;-63
2023/07/26 05:04:48;;;;;;;2.40;2.20;;;;;;;;;;5059996;28;20234;-62
2023/07/26 05:07:19;;;;;;;5.53;2.30;;;;;;;;;;5041219;28;20225;-62
2023/07/26 05:09:56;;;;;;;2.00;1.80;;;;;;;;;;5061265;28;20339;-63
2023/07/26 05:12:24;;;;;;;2.03;1.93;;;;;;;;;;5055108;28;20241;-64
2023/07/26 05:14:57;;;;;;;2.63;2.20;;;;;;;;;;5058514;28;20240;-62
2023/07/26 05:17:29;;;;;;;2.70;2.50;;;;;;;;;;5057702;28;20225;-63
2023/07/26 05:19:59;;;;;;;3.43;3.13;;;;;;;;;;5060501;28;20214;-62
2023/07/26 05:22:32;;;;;;;4.23;3.93;;;;;;;;;;5042860;28;20236;-63
2023/07/26 05:25:04;;;;;;;4.13;3.70;;;;;;;;;;5061061;28;20254;-62
2023/07/26 05:27:36;;;;;;;4.60;3.70;;;;;;;;;;5062004;28;20282;-63
2023/07/26 05:30:06;;;;;;;4.23;3.83;;;;;;;;;;5062550;28;20198;-62
2023/07/26 05:32:35;;;;;;;4.90;4.27;;;;;;;;;;5046992;28;20233;-63
2023/07/26 05:35:12;;;;;;;4.87;4.10;;;;;;;;;;5061927;28;20201;-62
2023/07/26 05:37:45;;;;;;;4.60;4.30;;;;;;;;;;5055477;28;20319;-62
2023/07/26 05:40:14;;;;;;;5.00;4.57;;;;;;;;;;5061376;28;20230;-62
2023/07/26 05:42:46;;;;;;;5.23;4.77;;;;;;;;;;5061851;28;20255;-62
2023/07/26 05:45:15;;;;;;;7.50;6.80;;;;;;;;;;5045389;28;20218;-62
2023/07/26 05:47:46;;;;;;;10.77;8.30;;;;;;;;;;5068997;28;20257;-67
2023/07/26 05:50:16;;;;;;;9.37;8.47;;;;;;;;;;5060422;28;20682;-63
2023/07/26 05:52:46;;;;;;;9.50;8.23;;;;;;;;;;5062914;28;20210;-62
2023/07/26 05:55:17;;;;;;;13.67;9.30;;;;;;;;;;5063827;28;20208;-62
2023/07/26 05:57:46;;;;;;;12.17;8.73;;;;;;;;;;5041932;28;20230;-62
2023/07/26 06:00:17;;;;;;;9.23;8.33;;;;;;;;;;5061290;28;20214;-63
2023/07/26 06:02:51;;;;;;;9.47;7.67;;;;;;;;;;5064237;28;20242;-63
2023/07/26 06:05:29;;;;;;;9.90;8.43;;;;;;;;;;5044629;28;20236;-63
2023/07/26 06:08:05;;;;;;;9.40;8.43;;;;;;;;;;5051174;28;20236;-63
2023/07/26 06:10:36;;;;;;;10.53;8.90;;;;;;;;;;5047533;28;20198;-63
2023/07/26 06:13:16;;;;;;;12.20;9.53;;;;;;;;;;5044059;28;20254;-63
2023/07/26 06:15:47;;;;;;;10.20;9.17;;;;;;;;;;5060454;28;20237;-63
2023/07/26 06:18:21;;;;;;;10.10;9.03;;;;;;;;;;5048260;28;20234;-63
2023/07/26 06:21:11;;;;;;;9.80;8.80;;;;;;;;;;5062091;28;20206;-63
2023/07/26 06:23:46;;;;;;;11.63;9.53;;;;;;;;;;5044797;28;20662;-62
2023/07/26 06:26:20;;;;;;;10.27;8.80;;;;;;;;;;5058752;28;20299;-61
2023/07/26 06:28:55;;;;;;;10.00;9.03;;;;;;;;;;5041009;28;20589;-63
2023/07/26 06:31:36;;;;;;;15.83;9.90;;;;;;;;;;5030784;28;20205;-63
2023/07/26 06:34:07;;;;;;;11.07;10.03;;;;;;;;;;5048508;28;20665;-63
2023/07/26 06:36:40;;;;;;;12.43;9.67;;;;;;;;;;5049761;28;20226;-63
2023/07/26 06:39:20;;;;;;;11.33;9.30;;;;;;;;;;5053698;28;20244;-64
2023/07/26 06:41:51;;;;;;;9.40;8.50;;;;;;;;;;5026429;28;20568;-63
2023/07/26 06:44:28;;;;;;;10.37;9.30;;;;;;;;;;5038412;28;20198;-63
2023/07/26 06:47:04;;;;;;;9.67;8.63;;;;;;;;;;5038819;28;20335;-63
2023/07/26 06:49:37;;;;;;;10.23;9.17;;;;;;;;;;5038510;28;20297;-63
2023/07/26 06:52:09;;;;;;;11.50;8.97;;;;;;;;;;5044061;28;20206;-63
2023/07/26 06:54:40;;;;;;;9.30;8.10;;;;;;;;;;5061026;28;20713;-63
2023/07/26 06:57:22;;;;;;;11.10;8.60;;;;;;;;;;5057401;28;20218;-62
2023/07/26 06:59:59;;;;;;;10.37;9.20;;;;;;;;;;5056729;28;20202;-62
2023/07/26 07:02:29;;;;;;;8.40;7.70;;;;;;;;;;5056130;28;20650;-62
2023/07/26 07:05:18;;;;;;;10.33;7.03;;;;;;;;;;5041190;28;20240;-62
2023/07/26 07:07:49;;;;;;;9.30;7.40;;;;;;;;;;5062759;28;20222;-62
2023/07/26 07:10:27;;;;;;;7.97;7.17;;;;;;;;;;5055760;28;20256;-62
2023/07/26 07:12:57;;;;;;;11.80;9.53;;;;;;;;;;5055793;28;20211;-62
2023/07/26 07:15:30;;;;;;;10.03;6.93;;;;;;;;;;5041080;28;20248;-62
2023/07/26 07:18:00;;;;;;;7.87;7.07;;;;;;;;;;5042260;28;20265;-63
2023/07/26 07:20:37;;;;;;;10.60;7.67;;;;;;;;;;5036262;28;20277;-63
2023/07/26 07:23:09;;;;;;;37.40;24.27;;;;;;;;;;5036514;28;20203;-62
2023/07/26 07:25:43;;;;;;;7.90;7.00;;;;;;;;;;5055353;28;20210;-62
2023/07/26 07:28:22;;;;;;;10.43;9.07;;;;;;;;;;5057516;28;20222;-63
2023/07/26 07:30:59;;;;;;;6.18;5.68;;;;;;;;;;5057173;28;20222;-63
2023/07/26 07:33:36;;;;;;;35.15;18.80;;;;;;;;;;5058613;28;20283;-62
2023/07/26 07:36:17;;;;;;;10.68;8.73;;;;;;;;;;5052500;28;20222;-63
2023/07/26 07:38:56;;;;;;;7.07;5.25;;;;;;;;;;5032021;28;20211;-63
2023/07/26 07:41:30;;;;;;;15.05;10.13;;;;;;;;;;5057178;28;20548;-62
2023/07/26 07:44:08;;;;;;;13.13;9.93;;;;;;;;;;5064622;28;20209;-63
2023/07/26 07:46:37;;;;;;;8.27;5.68;;;;;;;;;;5037371;28;20279;-62
2023/07/26 07:49:16;;;;;;;6.10;5.40;;;;;;;;;;5036138;28;20212;-62
2023/07/26 07:51:45;;;;;;;5.88;4.55;;;;;;;;;;5060048;28;20206;-63
2023/07/26 07:54:18;;;;;;;5.18;4.68;;;;;;;;;;5055470;28;20206;-63
2023/07/26 07:56:48;;;;;;;6.68;4.55;;;;;;;;;;5040353;28;20236;-62
2023/07/26 07:59:39;;;;;;;4.90;4.13;;;;;;;;;;5057566;28;20237;-63
2023/07/26 08:02:18;;;;;;;5.10;4.30;;;;;;;;;;5064428;28;20202;-62
2023/07/26 08:04:52;;;;;;;5.38;4.50;;;;;;;;;;5063054;28;20205;-64
2023/07/26 08:07:25;;;;;;;4.32;3.97;;;;;;;;;;5046499;28;20237;-62
2023/07/26 08:10:02;;;;;;;6.25;4.68;;;;;;;;;;5046037;28;20206;-62
2023/07/26 08:12:34;;;;;;;5.57;4.85;;;;;;;;;;5040177;28;20214;-63
2023/07/26 08:15:03;;;;;;;4.38;3.97;;;;;;;;;;5056428;28;20210;-63
2023/07/26 08:17:32;;;;;;;4.97;4.07;;;;;;;;;;5063480;28;20258;-63
2023/07/26 08:20:38;;;;;;;5.75;4.13;;;;;;;;;;5064513;28;20360;-63
2023/07/26 08:23:23;;;;;;;7.45;3.95;;;;;;;;;;5050150;28;20273;-65
2023/07/26 08:26:06;;;;;;;4.77;4.30;;;;;;;;;;5062764;28;20218;-64
2023/07/26 08:28:35;;;;;;;7.18;4.32;;;;;;;;;;5067038;28;20261;-65
2023/07/26 08:31:05;;;;;;;5.07;4.00;;;;;;;;;;5068842;28;20198;-64
2023/07/26 08:33:35;;;;;;;6.05;4.10;;;;;;;;;;5052841;28;20194;-64
2023/07/26 08:36:15;;;;;;;4.38;4.00;;;;;;;;;;5039948;28;20237;-63
2023/07/26 08:38:47;;;;;;;4.30;3.73;;;;;;;;;;5055510;28;20202;-63
2023/07/26 08:41:17;;;;;;;7.20;4.00;;;;;;;;;;5054681;28;20206;-63
2023/07/26 08:43:52;;;;;;;4.67;3.93;;;;;;;;;;5062423;28;20219;-62
2023/07/26 08:46:28;;;;;;;6.72;4.20;;;;;;;;;;5052840;28;20269;-63
2023/07/26 08:49:03;;;;;;;4.18;3.60;;;;;;;;;;5040618;28;20573;-63
2023/07/26 08:51:34;;;;;;;4.05;3.47;;;;;;;;;;5055827;28;20401;-62
2023/07/26 08:54:04;;;;;;;5.45;3.50;;;;;;;;;;5053144;28;20195;-62
2023/07/26 08:56:34;;;;;;;4.13;3.78;;;;;;;;;;5055367;28;20230;-62
2023/07/26 08:59:11;;;;;;;4.25;3.90;;;;;;;;;;5058857;28;20202;-63
2023/07/26 09:01:42;;;;;;;6.80;4.40;;;;;;;;;;5037111;28;20746;-63
2023/07/26 09:04:30;;;;;;;5.45;4.45;;;;;;;;;;5060523;28;20201;-63
2023/07/26 09:07:03;;;;;;;5.93;4.82;;;;;;;;;;5039982;28;20230;-63
2023/07/26 09:09:32;;;;;;;8.68;5.20;;;;;;;;;;5053460;28;20202;-62
2023/07/26 09:12:02;;;;;;;6.93;6.33;;;;;;;;;;5055672;28;20205;-63
2023/07/26 09:14:35;;;;;;;6.43;5.83;;;;;;;;;;5050192;28;20229;-62
2023/07/26 09:17:06;;;;;;;3.60;3.30;;;;;;;;;;5058373;28;20234;-62
2023/07/26 09:19:38;;;;;;;4.80;4.00;;;;;;;;;;5058788;28;20202;-63
2023/07/26 09:22:08;;;;;;;5.27;3.77;;;;;;;;;;5057861;28;20209;-62
2023/07/26 09:24:40;;;;;;;2.63;2.27;;;;;;;;;;5052365;28;20210;-62
2023/07/26 09:27:12;;;;;;;3.70;1.90;;;;;;;;;;5051548;28;20297;-62
2023/07/26 09:29:41;;;;;;;2.77;2.07;;;;;;;;;;5057900;28;20198;-63
2023/07/26 09:32:17;;;;;;;2.30;2.10;;;;;;;;;;5055392;28;20209;-62
2023/07/26 09:34:46;;;;;;;3.27;2.40;;;;;;;;;;5058027;28;20622;-61
2023/07/26 09:37:29;;;;;;;2.63;2.43;;;;;;;;;;5062890;28;20305;-62
2023/07/26 09:40:02;;;;;;;3.77;2.70;;;;;;;;;;5067493;28;20207;-62
2023/07/26 09:42:44;;;;;;;3.33;3.00;;;;;;;;;;5063900;28;20216;-62
2023/07/26 09:45:22;;;;;;;3.53;3.33;;;;;;;;;;5045932;28;20301;-62
2023/07/26 09:48:05;;;;;;;7.63;4.00;;;;;;;;;;5055445;28;20242;-63
2023/07/26 09:50:49;;;;;;;4.40;4.00;;;;;;;;;;5055031;28;20221;-63
2023/07/26 09:53:23;;;;;;;5.27;4.80;;;;;;;;;;5062182;28;20212;-62
2023/07/26 09:55:55;;;;;;;6.97;5.70;;;;;;;;;;5058687;28;20215;-62
2023/07/26 09:58:33;;;;;;;7.63;6.10;;;;;;;;;;5057898;28;20226;-62
2023/07/26 10:01:06;;;;;;;6.73;4.20;;;;;;;;;;5063270;28;20198;-61
2023/07/26 10:03:40;;;;;;;5.60;3.70;;;;;;;;;;5062581;28;20262;-62
2023/07/26 10:06:23;;;;;;;5.93;4.23;;;;;;;;;;5056545;28;20401;-65
2023/07/26 10:09:00;;;;;;;10.77;7.53;;;;;;;;;;5056936;28;20670;-63
2023/07/26 10:11:30;;;;;;;8.77;4.33;;;;;;;;;;5063573;28;20213;-63
2023/07/26 10:14:10;;;;;;;3.10;2.77;;;;;;;;;;5061769;28;20225;-63
2023/07/26 10:16:46;;;;;;;4.13;3.70;;;;;;;;;;5028544;28;20234;-63
2023/07/26 10:19:29;;;;;;;7.77;3.90;;;;;;;;;;5060703;28;20233;-62
2023/07/26 10:22:06;;;;;;;8.23;5.77;;;;;;;;;;5047522;28;20284;-62
2023/07/26 10:24:42;;;;;;;6.00;4.50;;;;;;;;;;5039440;28;20206;-62
2023/07/26 10:27:16;;;;;;;4.60;4.30;;;;;;;;;;5042435;28;20256;-61
2023/07/26 10:29:48;;;;;;;5.83;5.27;;;;;;;;;;5046852;28;20210;-62
2023/07/26 10:32:40;;;;;;;4.63;4.27;;;;;;;;;;5057203;28;20442;-62
2023/07/26 10:35:36;;;;;;;4.82;4.28;;;;;;;;;;5059774;28;20210;-62
2023/07/26 10:38:15;;;;;;;4.70;4.32;;;;;;;;;;5030173;28;20336;-62
2023/07/26 10:40:54;;;;;;;4.00;3.70;;;;;;;;;;5028771;28;20252;-64
2023/07/26 10:43:25;;;;;;;3.75;3.30;;;;;;;;;;5031370;28;20269;-62
2023/07/26 10:46:10;;;;;;;4.05;3.75;;;;;;;;;;5030229;28;20752;-62
2023/07/26 10:48:42;;;;;;;4.97;4.47;;;;;;;;;;5037833;28;20198;-63
2023/07/26 10:51:34;;;;;;;4.20;3.80;;;;;;;;;;5053783;28;20626;-62
2023/07/26 10:54:07;;;;;;;3.65;3.45;;;;;;;;;;5049896;28;20207;-64
2023/07/26 10:56:37;;;;;;;5.22;4.35;;;;;;;;;;5051635;28;20225;-62
2023/07/26 10:59:15;;;;;;;3.60;3.30;;;;;;;;;;5053173;28;20203;-63
2023/07/26 11:01:50;;;;;;;3.80;3.50;;;;;;;;;;5054799;28;20210;-62
2023/07/26 11:04:23;;;;;;;4.00;3.58;;;;;;;;;;5038564;28;20202;-62
2023/07/26 11:06:59;;;;;;;4.05;3.65;;;;;;;;;;5038266;28;20230;-63
2023/07/26 11:09:56;;;;;;;2.33;1.83;;;;;;;;;;5055992;28;20198;-63
2023/07/26 11:12:37;;;;;;;2.70;1.97;;;;;;;;;;5042702;28;20213;-64
2023/07/26 11:15:10;;;;;;;3.37;3.00;;;;;;;;;;5061189;28;20210;-62
2023/07/26 11:18:02;;;;;;;2.50;2.30;;;;;;;;;;5045856;28;20226;-61
2023/07/26 11:23:44;;;;;;;3.10;2.80;;;;;;;;;;5058664;28;20268;-63
2023/07/26 11:26:19;;;;;;;2.90;2.67;;;;;;;;;;5047620;28;20245;-63
2023/07/26 11:28:54;;;;;;;3.10;2.60;;;;;;;;;;5060643;28;20662;-62
2023/07/26 11:31:49;;;;;;;3.00;2.80;;;;;;;;;;5060732;28;20198;-62
2023/07/26 11:34:23;;;;;;;2.43;2.30;;;;;;;;;;5061465;28;20238;-62
2023/07/26 11:37:05;;;;;;;3.13;2.93;;;;;;;;;;5063136;28;20226;-63
2023/07/26 11:39:39;;;;;;;2.50;2.30;;;;;;;;;;5061772;28;20265;-64
2023/07/26 11:42:16;;;;;;;2.50;2.30;;;;;;;;;;5047898;28;20216;-63
2023/07/26 11:44:46;;;;;;;2.93;2.73;;;;;;;;;;5062358;28;20324;-62
2023/07/26 11:47:17;;;;;;;2.50;2.30;;;;;;;;;;5063838;28;20226;-64
2023/07/26 11:49:53;;;;;;;2.40;2.20;;;;;;;;;;5058616;28;20212;-64
2023/07/26 11:52:35;;;;;;;3.33;2.20;;;;;;;;;;5062533;28;20213;-63
2023/07/26 11:55:07;;;;;;;2.33;2.13;;;;;;;;;;5060320;28;20199;-63
2023/07/26 11:57:36;;;;;;;3.05;1.60;;;;;;;;;;5059073;28;20233;-63
2023/07/26 12:00:08;;;;;;;2.92;2.20;;;;;;;;;;5061999;28;20210;-63
2023/07/26 12:02:41;;;;;;;2.30;1.92;;;;;;;;;;5059595;28;20206;-63
2023/07/26 12:05:21;;;;;;;2.83;2.05;;;;;;;;;;5050335;28;20217;-62
2023/07/26 12:08:00;;;;;;;2.20;2.00;;;;;;;;;;5057730;28;20237;-63
2023/07/26 12:10:33;;;;;;;2.00;1.90;;;;;;;;;;5047146;28;20198;-63
2023/07/26 12:13:10;;;;;;;1.80;1.70;;;;;;;;;;5054058;28;20225;-62
2023/07/26 12:15:52;;;;;;;1.80;1.70;;;;;;;;;;5062354;28;20269;-66
2023/07/26 12:18:24;;;;;;;1.42;1.33;;;;;;;;;;5065592;28;20210;-63
2023/07/26 12:20:56;;;;;;;1.92;1.60;;;;;;;;;;5046045;28;20210;-63
2023/07/26 12:23:50;;;;;;;1.80;1.70;;;;;;;;;;5060704;28;20899;-64
2023/07/26 12:26:37;;;;;;;1.77;1.67;;;;;;;;;;5054075;28;20743;-63
2023/07/26 12:29:09;;;;;;;1.80;1.70;;;;;;;;;;5066520;28;20190;-63
2023/07/26 12:31:45;;;;;;;2.63;2.08;;;;;;;;;;5065594;28;21051;-63
2023/07/26 12:34:48;;;;;;;2.10;1.92;;;;;;;;;;5067636;28;20194;-65
2023/07/26 12:37:37;;;;;;;2.65;2.45;;;;;;;;;;5066558;28;20298;-64
2023/07/26 12:40:07;;;;;;;2.25;2.08;;;;;;;;;;5055213;28;20202;-64
2023/07/26 12:42:38;;;;;;;2.00;1.90;;;;;;;;;;5050340;28;20666;-64
2023/07/26 12:45:09;;;;;;;2.40;2.20;;;;;;;;;;5049779;28;20229;-64
2023/07/26 12:47:45;;;;;;;2.80;2.47;;;;;;;;;;5047615;28;20238;-64
2023/07/26 12:50:27;;;;;;;2.00;1.90;;;;;;;;;;5049667;28;20234;-64
2023/07/26 12:53:25;;;;;;;2.92;1.88;;;;;;;;;;5029758;28;20268;-64
2023/07/26 12:56:11;;;;;;;3.40;2.15;;;;;;;;;;5032807;28;20217;-64
2023/07/26 12:58:43;;;;;;;3.42;2.17;;;;;;;;;;5055420;28;20206;-64
2023/07/26 13:01:38;;;;;;;2.20;2.00;;;;;;;;;;5035204;28;20217;-64
2023/07/26 13:04:11;;;;;;;2.88;2.20;;;;;;;;;;5036167;28;20300;-64
2023/07/26 13:06:49;;;;;;;3.20;2.33;;;;;;;;;;5053333;28;20233;-65
2023/07/26 13:09:23;;;;;;;7.07;5.10;;;;;;;;;;5056724;28;20724;-62
2023/07/26 13:11:58;;;;;;;2.67;2.20;;;;;;;;;;5058932;28;20647;-64
2023/07/26 13:14:31;;;;;;;3.70;2.78;;;;;;;;;;5058264;28;20202;-65
2023/07/26 13:17:05;;;;;;;2.42;2.22;;;;;;;;;;5061532;28;20229;-64
2023/07/26 13:19:43;;;;;;;2.95;2.50;;;;;;;;;;5055907;28;20229;-65
2023/07/26 13:22:11;;;;;;;3.47;2.55;;;;;;;;;;5053399;28;20198;-64
2023/07/26 13:24:40;;;;;;;3.40;2.33;;;;;;;;;;5051094;28;20260;-63
2023/07/26 13:27:08;;;;;;;3.42;2.65;;;;;;;;;;5039953;28;20242;-66
2023/07/26 13:29:37;;;;;;;3.22;2.50;;;;;;;;;;5039586;28;20669;-64
2023/07/26 13:32:23;;;;;;;2.90;2.70;;;;;;;;;;5061896;28;20736;-64
2023/07/26 13:35:01;;;;;;;3.05;2.75;;;;;;;;;;5042678;28;20201;-65
2023/07/26 13:37:34;;;;;;;2.92;2.70;;;;;;;;;;5061394;28;20798;-65
2023/07/26 13:40:14;;;;;;;3.55;2.90;;;;;;;;;;5061185;28;20272;-66
2023/07/26 13:42:43;;;;;;;3.03;2.75;;;;;;;;;;5057962;28;20275;-64
2023/07/26 13:45:16;;;;;;;3.58;3.00;;;;;;;;;;5059639;28;20283;-64
2023/07/26 13:47:58;;;;;;;3.92;3.63;;;;;;;;;;5064879;28;20305;-64
2023/07/26 13:50:28;;;;;;;3.30;3.00;;;;;;;;;;5057791;28;20220;-64
2023/07/26 13:52:57;;;;;;;5.10;2.92;;;;;;;;;;5049709;28;20286;-63
2023/07/26 13:55:28;;;;;;;3.13;2.80;;;;;;;;;;5059510;28;20328;-63
2023/07/26 13:57:58;;;;;;;3.53;2.70;;;;;;;;;;5045316;28;20243;-63
2023/07/26 14:00:31;;;;;;;3.35;2.97;;;;;;;;;;5054058;28;20218;-63
2023/07/26 14:03:07;;;;;;;2.42;2.22;;;;;;;;;;5055245;28;20206;-63
2023/07/26 14:05:41;;;;;;;3.38;2.65;;;;;;;;;;5054449;28;20214;-64
2023/07/26 14:08:15;;;;;;;3.10;2.80;;;;;;;;;;5041572;28;20234;-63
2023/07/26 14:11:13;;;;;;;3.30;2.70;;;;;;;;;;5051854;28;20210;-64
2023/07/26 14:13:57;;;;;;;4.80;2.63;;;;;;;;;;5059345;28;20225;-63
2023/07/26 14:16:34;;;;;;;2.70;2.50;;;;;;;;;;5061557;28;20251;-63
2023/07/26 14:19:08;;;;;;;10.25;6.90;;;;;;;;;;5033466;28;20226;-63
2023/07/26 14:21:45;;;;;;;6.15;4.80;;;;;;;;;;5038271;28;20203;-65
2023/07/26 14:24:16;;;;;;;2.80;2.60;;;;;;;;;;5058401;28;20433;-63
2023/07/26 14:26:48;;;;;;;2.75;2.42;;;;;;;;;;5058685;28;20230;-63
2023/07/26 14:29:18;;;;;;;2.70;2.50;;;;;;;;;;5058546;28;20198;-64
2023/07/26 14:31:52;;;;;;;4.75;2.50;;;;;;;;;;5053093;28;20216;-63
2023/07/26 14:34:20;;;;;;;3.45;2.53;;;;;;;;;;5054373;28;20195;-66
2023/07/26 14:36:49;;;;;;;3.75;2.97;;;;;;;;;;5053228;28;20253;-63
2023/07/26 14:39:20;;;;;;;3.20;2.90;;;;;;;;;;5049322;28;20210;-63
2023/07/26 14:41:50;;;;;;;3.75;3.13;;;;;;;;;;5042785;28;20233;-63
2023/07/26 14:44:19;;;;;;;3.63;3.00;;;;;;;;;;5052210;28;20605;-64
2023/07/26 14:46:50;;;;;;;3.35;3.03;;;;;;;;;;5046457;28;20575;-64
2023/07/26 14:49:18;;;;;;;3.35;2.75;;;;;;;;;;5044739;28;20719;-63
2023/07/26 14:51:48;;;;;;;3.20;2.65;;;;;;;;;;5047050;28;20207;-63
2023/07/26 14:54:17;;;;;;;4.38;3.30;;;;;;;;;;5047888;28;20198;-64
2023/07/26 14:56:52;;;;;;;3.35;2.92;;;;;;;;;;5039273;28;20222;-64
2023/07/26 14:59:37;;;;;;;3.17;2.70;;;;;;;;;;5048349;28;20222;-63
2023/07/26 15:02:09;;;;;;;3.38;2.50;;;;;;;;;;5048408;28;20193;-63
2023/07/26 15:04:37;;;;;;;4.75;2.97;;;;;;;;;;5032432;28;20196;-63
2023/07/26 15:07:13;;;;;;;3.20;2.90;;;;;;;;;;5051958;28;20846;-64
2023/07/26 15:09:50;;;;;;;3.67;3.20;;;;;;;;;;5038721;28;20245;-64
2023/07/26 15:12:22;;;;;;;4.13;2.70;;;;;;;;;;5054311;28;20263;-64
2023/07/26 15:14:56;;;;;;;3.70;3.40;;;;;;;;;;5056141;28;20220;-64
2023/07/26 15:17:28;;;;;;;3.10;2.55;;;;;;;;;;5043623;28;20229;-64
2023/07/26 15:19:56;;;;;;;8.05;2.55;;;;;;;;;;5060238;28;20212;-64